Time,TemperatureF,DewpointF,PressureIn,WindDirection,WindDirectionDegrees,WindSpeedMPH,WindSpeedGustMPH,Humidity,HourlyPrecipIn,Conditions,Clouds,dailyrainin,SoftwareType,DateUTC
2013-04-02 16:00:00,33.4,26.7,29.91,NE,38,0.0,2.0,76,0.00,CLR,CLR,0.00,WeatherDisplay:10.37,2013-04-02 15:00:00,
2013-04-02 16:10:00,38.1,25.0,30.04,East,80,1.0,3.0,59,0.00,CLR,CLR,0.00,WeatherDisplay:10.37,2013-04-02 15:10:00,
2013-04-02 16:15:00,37.9,24.9,30.05,NE,37,0.0,3.0,59,0.00,CLR,CLR,0.00,WeatherDisplay:10.37,2013-04-02 15:15:00,
2013-04-02 16:20:00,37.9,25.3,30.05,NE,55,0.0,2.0,60,0.00,CLR,CLR,0.00,WeatherDisplay:10.37,2013-04-02 15:20:00,
2013-04-02 20:30:00,32.9,29.5,30.05,ESE,113,0.0,1.0,87,0.00,CLR,CLR,0.00,WeatherDisplay:10.37,2013-04-02 19:30:00,
2013-04-02 20:35:00,32.9,29.5,30.05,ESE,114,1.0,4.0,87,0.00,CLR,CLR,0.00,WeatherDisplay:10.37,2013-04-02 19:35:00,
2013-04-02 20:42:00,38.8,24.0,30.04,SSE,158,0.7,12.1,55,0.00,CLR,,0.00,WeatherDisplay:10.37,2013-04-02 19:42:00,
2013-04-02 20:43:00,38.8,24.0,30.04,SSE,158,0.7,12.1,55,0.00,CLR,,0.00,WeatherDisplay:10.37,2013-04-02 19:43:00,
2013-04-02 20:48:00,38.7,23.9,30.04,North,0,0.0,3.5,55,0.00,CLR,,0.00,WeatherDisplay:10.37,2013-04-02 19:48:00,
2013-04-02 20:54:00,38.5,24.1,30.04,WNW,292,0.7,3.8,56,0.00,CLR,,0.00,WeatherDisplay:10.37,2013-04-02 19:54:00,
2013-04-02 20:59:00,38.5,24.6,30.04,NE,45,1.6,4.5,57,0.00,CLR,,0.00,WeatherDisplay:10.37,2013-04-02 19:59:00,
2013-04-02 21:04:00,38.3,24.8,30.05,East,90,0.7,2.3,58,0.00,CLR,,0.00,WeatherDisplay:10.37,2013-04-02 20:04:00,
2013-04-02 21:09:00,38.3,24.8,30.05,East,90,0.0,1.6,58,0.00,CLR,,0.00,WeatherDisplay:10.37,2013-04-02 20:09:00,
2013-04-02 21:14:00,38.1,25.0,30.04,NE,45,0.0,3.5,59,0.00,CLR,,0.00,WeatherDisplay:10.37,2013-04-02 20:14:00,
2013-04-02 21:19:00,37.9,24.9,30.05,NW,315,0.0,2.3,59,0.00,CLR,,0.00,WeatherDisplay:10.37,2013-04-02 20:19:00,
2013-04-02 21:27:00,37.8,25.5,30.05,East,90,0.0,6.9,61,0.00,CLR,,0.00,WeatherDisplay:10.37,2013-04-02 20:27:00,
2013-04-02 21:32:00,37.8,25.5,30.05,East,90,0.7,2.3,61,0.00,CLR,,0.00,WeatherDisplay:10.37,2013-04-02 20:32:00,
2013-04-02 21:38:00,37.6,25.3,30.05,North,0,0.0,3.5,61,0.00,CLR,,0.00,WeatherDisplay:10.37,2013-04-02 20:38:00,
2013-04-02 21:43:00,37.4,25.6,30.05,SE,135,0.0,5.8,62,0.00,CLR,,0.00,WeatherDisplay:10.37,2013-04-02 20:43:00,
2013-04-02 21:48:00,37.2,25.4,30.05,East,90,0.7,3.8,62,0.00,CLR,,0.00,WeatherDisplay:10.37,2013-04-02 20:48:00,
2013-04-02 21:54:00,37.0,25.6,30.06,North,0,0.7,3.5,63,0.00,CLR,,0.00,WeatherDisplay:10.37,2013-04-02 20:54:00,
2013-04-02 21:59:00,37.0,25.6,30.05,NE,45,0.7,5.8,63,0.00,CLR,,0.00,WeatherDisplay:10.37,2013-04-02 20:59:00,
2013-04-02 22:04:00,36.9,25.4,30.06,SE,135,0.7,2.3,63,0.00,CLR,,0.00,WeatherDisplay:10.37,2013-04-02 21:04:00,
2013-04-02 22:09:00,36.7,25.6,30.06,NE,45,0.7,3.5,64,0.00,CLR,,0.00,WeatherDisplay:10.37,2013-04-02 21:09:00,
2013-04-02 22:14:00,36.7,26.0,30.06,NE,45,2.2,6.9,65,0.00,CLR,,0.00,WeatherDisplay:10.37,2013-04-02 21:14:00,
2013-04-02 22:19:00,36.5,25.8,30.06,North,0,1.6,5.8,65,0.00,CLR,,0.00,WeatherDisplay:10.37,2013-04-02 21:19:00,
2013-04-02 22:24:00,36.3,26.0,30.05,North,0,3.1,6.9,66,0.00,CLR,,0.00,WeatherDisplay:10.37,2013-04-02 21:24:00,
2013-04-02 22:29:00,36.3,26.0,30.05,NE,45,0.7,3.8,66,0.00,CLR,,0.00,WeatherDisplay:10.37,2013-04-02 21:29:00,
2013-04-02 22:34:00,36.1,26.2,30.06,East,90,0.0,4.6,67,0.00,CLR,,0.00,WeatherDisplay:10.37,2013-04-02 21:34:00,
2013-04-02 22:39:00,36.0,26.1,30.06,North,0,3.1,6.9,67,0.00,CLR,,0.00,WeatherDisplay:10.37,2013-04-02 21:39:00,
2013-04-02 22:44:00,35.8,26.2,30.06,East,90,2.2,5.8,68,0.00,CLR,,0.00,WeatherDisplay:10.37,2013-04-02 21:44:00,
2013-04-02 22:49:00,35.6,26.4,30.06,East,90,3.1,6.0,69,0.00,CLR,,0.00,WeatherDisplay:10.37,2013-04-02 21:49:00,
2013-04-02 22:54:00,35.6,26.4,30.06,NE,45,0.7,3.5,69,0.00,CLR,,0.00,WeatherDisplay:10.37,2013-04-02 21:54:00,
2013-04-02 22:59:00,35.4,26.3,30.06,West,270,0.0,3.5,69,0.00,CLR,,0.00,WeatherDisplay:10.37,2013-04-02 21:59:00,
2013-04-02 23:04:00,35.2,26.4,30.06,NNE,22,0.7,4.6,70,0.00,CLR,,0.00,WeatherDisplay:10.37,2013-04-02 22:04:00,
2013-04-02 23:09:00,35.1,26.6,30.06,South,180,0.7,3.8,71,0.00,CLR,,0.00,WeatherDisplay:10.37,2013-04-02 22:09:00,
2013-04-02 23:14:00,35.1,26.6,30.06,East,90,0.7,3.5,71,0.00,CLR,,0.00,WeatherDisplay:10.37,2013-04-02 22:14:00,
2013-04-02 23:19:00,35.1,26.9,30.06,NW,315,0.7,5.8,72,0.00,CLR,,0.00,WeatherDisplay:10.37,2013-04-02 22:19:00,
2013-04-02 23:25:00,34.9,26.8,30.06,NNE,25,0.0,5.0,72,0.00,CLR,CLR,0.00,WeatherDisplay:10.37,2013-04-02 22:25:00,
2013-04-02 23:30:00,34.7,26.6,30.06,ENE,68,0.7,4.6,72,0.00,CLR,,0.00,WeatherDisplay:10.37,2013-04-02 22:30:00,
2013-04-02 23:35:00,34.5,26.8,30.06,NE,45,1.6,3.8,73,0.00,CLR,,0.00,WeatherDisplay:10.37,2013-04-02 22:35:00,
2013-04-02 23:40:00,34.5,26.8,30.05,East,90,0.0,3.5,73,0.00,CLR,,0.00,WeatherDisplay:10.37,2013-04-02 22:40:00,
2013-04-02 23:45:00,34.3,26.9,30.06,North,0,0.0,3.5,74,0.00,CLR,,0.00,WeatherDisplay:10.37,2013-04-02 22:45:00,
2013-04-02 23:50:00,34.3,27.6,30.06,North,0,1.6,6.0,76,0.00,CLR,,0.00,WeatherDisplay:10.37,2013-04-02 22:50:00,
2013-04-02 23:55:00,34.3,27.6,30.06,SE,135,0.7,3.5,76,0.00,CLR,,0.00,WeatherDisplay:10.37,2013-04-02 22:55:00,